首页
METAR-TAF:

METAR-TAF

机场 :

Altus Air Force Base

Altus, 奧克拉荷馬州, 美国

纬度: 34-39N, 经度: 099-16W, 海拔: 420米

当前天气观测

该预报发布于40分钟前的20:55 UTC
风速7节,风向
温度 35°C
湿度 34%
气压 1014 hPa
能見度: 16.1公里
天空无云

METAR: KLTS 142055Z AUTO 17007KT 10SM CLR 35/17 A2993 RMK AO2 SLP115 T03450168 57022 $

时间: 16:35 (21:35 UTC)

预报

该预报发布于3小时和40分钟前的17:55 UTC
预报有效从14日的 17点(UTC)到 15日的 23点(UTC)
风速10节,风向,有时为15节阵风
能见度10公里或以上
少量云层高于6000英尺
成为
从 15日的 02点(UTC)到 15日的 03点(UTC)
风速6节,风向多变
能见度10公里或以上
少量云层高于17000英尺
短暂存在
从 15日的 09点(UTC)到 15日的 13点(UTC)
能見度: 8000
少量云层高于3000英尺
轻雾
成为
从 15日的 14点(UTC)到 15日的 15点(UTC)
风速12节,风向,有时为18节阵风
能见度10公里或以上
少量云层高于4000英尺
少量云层高于18000英尺
散云层高于20000英尺

TAF: KLTS 141755Z 1417/1523 17010G15KT 9999 FEW060 QNH2987INS BECMG 1502/1503 VRB06KT 9999 FEW170 510103 QNH2990INS TEMPO 1509/1513 8000 BR FEW030 BECMG 1514/1515 19012G18KT 9999 FEW040 FEW180 SCT200 QNH2979INS TX36/1421Z TN22/1512Z

超过4000个机场的气象观测和天气预报(METAR&TAF报告)。

可查询的气象台以黄色和红色小点在地图上表示。

将鼠标移到小点上方,可查看气象台名称。

然后点击查看天气观测和预报。

如需切换地图:点击带黑十字的绿色按钮放大地图;点击带横线的绿色按钮缩小地图;或者点击绿色箭头查看邻近地区的地图。


METAR-TAF: